Time;durP1;ratioP1;P1;durP2;ratioP2;P2;SDS_P1;SDS_P2;PMS_P1;PMS_P2;Temp;Humidity;BMP_temperature;BMP_pressure;BME280_temperature;BME280_humidity;BME280_pressure;Samples;Min_cycle;Max_cycle;Signal;HPM_P1;HPM_P2
2022/08/06 00:02:10;;;;;;;11.63;5.77;;;;;;;;;;5041802;27;87431;-53
2022/08/06 00:04:39;;;;;;;11.97;6.03;;;;;;;;;;5041916;27;87934;-53
2022/08/06 00:07:10;;;;;;;11.70;6.27;;;;;;;;;;5042168;27;87138;-53
2022/08/06 00:09:51;;;;;;;12.77;6.03;;;;;;;;;;5042070;28;89132;-53
2022/08/06 00:12:28;;;;;;;9.60;5.93;;;;;;;;;;5041187;27;87037;-53
2022/08/06 00:14:57;;;;;;;8.83;4.97;;;;;;;;;;5042055;27;86935;-53
2022/08/06 00:17:26;;;;;;;9.63;5.10;;;;;;;;;;5041763;27;87059;-53
2022/08/06 00:20:01;;;;;;;9.87;5.13;;;;;;;;;;5041845;27;88632;-53
2022/08/06 00:22:30;;;;;;;9.93;5.07;;;;;;;;;;5042171;27;87693;-53
2022/08/06 00:25:01;;;;;;;10.03;5.00;;;;;;;;;;5042116;27;86953;-53
2022/08/06 00:27:30;;;;;;;7.37;4.83;;;;;;;;;;5042033;27;87001;-53
2022/08/06 00:30:07;;;;;;;10.60;5.80;;;;;;;;;;5040816;27;89988;-53
2022/08/06 00:32:45;;;;;;;9.27;4.73;;;;;;;;;;5041086;27;88677;-53
2022/08/06 00:35:20;;;;;;;8.43;4.80;;;;;;;;;;5041809;27;86938;-53
2022/08/06 00:37:50;;;;;;;9.73;4.33;;;;;;;;;;5041316;27;86993;-53
2022/08/06 00:40:27;;;;;;;7.13;4.43;;;;;;;;;;5041162;27;88144;-53
2022/08/06 00:42:56;;;;;;;9.70;4.37;;;;;;;;;;5041568;27;87661;-53
2022/08/06 00:45:24;;;;;;;8.57;3.70;;;;;;;;;;5041450;27;86959;-53
2022/08/06 00:47:53;;;;;;;6.17;3.60;;;;;;;;;;5041576;27;86267;-53
2022/08/06 00:50:31;;;;;;;5.73;2.90;;;;;;;;;;5041295;27;89268;-53
2022/08/06 00:52:59;;;;;;;4.77;3.10;;;;;;;;;;5041241;27;86911;-53
2022/08/06 00:55:29;;;;;;;5.77;3.20;;;;;;;;;;5040872;27;87894;-53
2022/08/06 00:58:03;;;;;;;5.57;2.80;;;;;;;;;;5041117;27;87022;-53
2022/08/06 01:00:31;;;;;;;6.90;3.57;;;;;;;;;;5041894;27;87989;-53
2022/08/06 01:03:16;;;;;;;5.37;3.00;;;;;;;;;;5044777;27;87769;-53
2022/08/06 01:06:04;;;;;;;5.53;3.53;;;;;;;;;;5045047;27;86951;-53
2022/08/06 01:08:52;;;;;;;5.63;3.23;;;;;;;;;;5045031;27;86923;-53
2022/08/06 01:11:23;;;;;;;6.30;3.20;;;;;;;;;;5044339;27;88019;-53
2022/08/06 01:13:51;;;;;;;4.67;2.57;;;;;;;;;;5044898;27;87984;-53
2022/08/06 01:16:35;;;;;;;6.57;2.37;;;;;;;;;;5044449;27;87081;-53
2022/08/06 01:19:11;;;;;;;5.67;3.50;;;;;;;;;;5044344;27;87468;-53
2022/08/06 01:22:01;;;;;;;5.50;2.23;;;;;;;;;;5044109;27;90300;-53
2022/08/06 01:24:52;;;;;;;5.00;2.67;;;;;;;;;;5044633;27;89403;-53
2022/08/06 01:27:29;;;;;;;2.73;2.10;;;;;;;;;;5045017;27;86945;-55
2022/08/06 01:30:04;;;;;;;5.73;2.43;;;;;;;;;;5044283;27;86908;-53
2022/08/06 01:32:35;;;;;;;3.63;2.30;;;;;;;;;;5043943;27;88062;-53
2022/08/06 01:35:10;;;;;;;4.93;2.10;;;;;;;;;;5043999;27;87757;-53
2022/08/06 01:37:51;;;;;;;2.47;1.73;;;;;;;;;;5044301;27;87325;-53
2022/08/06 01:40:23;;;;;;;3.43;1.83;;;;;;;;;;5044953;27;86251;-53
2022/08/06 01:42:54;;;;;;;3.70;2.13;;;;;;;;;;5043981;27;89101;-53
2022/08/06 01:45:27;;;;;;;2.57;1.73;;;;;;;;;;5043710;27;88829;-53
2022/08/06 01:48:15;;;;;;;3.90;1.80;;;;;;;;;;5043580;27;88034;-53
2022/08/06 01:50:45;;;;;;;3.17;1.53;;;;;;;;;;5044315;27;86973;-53
2022/08/06 01:53:15;;;;;;;3.60;1.57;;;;;;;;;;5043936;27;88272;-53
2022/08/06 01:56:03;;;;;;;3.00;2.03;;;;;;;;;;5043994;27;87321;-53
2022/08/06 01:58:38;;;;;;;1.93;1.20;;;;;;;;;;5043873;27;87092;-53
2022/08/06 02:01:12;;;;;;;1.50;1.33;;;;;;;;;;5043298;27;87056;-53
2022/08/06 02:03:53;;;;;;;2.10;1.40;;;;;;;;;;5043132;27;87978;-53
2022/08/06 02:06:28;;;;;;;4.90;2.00;;;;;;;;;;5044098;27;88980;-51
2022/08/06 02:08:57;;;;;;;2.97;1.70;;;;;;;;;;5044118;27;87073;-53
2022/08/06 02:11:25;;;;;;;1.83;1.53;;;;;;;;;;5043576;27;86944;-54
2022/08/06 02:14:15;;;;;;;6.70;1.80;;;;;;;;;;5042765;27;87959;-54
2022/08/06 02:16:45;;;;;;;2.97;1.90;;;;;;;;;;5043137;27;88923;-53
2022/08/06 02:19:14;;;;;;;3.03;1.60;;;;;;;;;;5043841;27;87053;-54
2022/08/06 02:21:45;;;;;;;2.50;1.40;;;;;;;;;;5044072;27;86993;-54
2022/08/06 02:24:24;;;;;;;3.33;1.77;;;;;;;;;;5043743;27;89099;-53
2022/08/06 02:26:53;;;;;;;2.90;1.57;;;;;;;;;;5043560;27;86991;-54
2022/08/06 02:29:23;;;;;;;2.27;1.50;;;;;;;;;;5043824;27;86923;-54
2022/08/06 02:31:53;;;;;;;2.33;1.73;;;;;;;;;;5042602;27;86406;-53
2022/08/06 02:34:21;;;;;;;3.10;2.10;;;;;;;;;;5043173;27;87058;-54
2022/08/06 02:36:58;;;;;;;6.17;3.00;;;;;;;;;;5043208;27;87931;-52
2022/08/06 02:39:28;;;;;;;4.43;2.77;;;;;;;;;;5043060;27;87809;-54
2022/08/06 02:42:09;;;;;;;6.23;3.57;;;;;;;;;;5043045;27;86893;-52
2022/08/06 02:44:44;;;;;;;5.00;2.50;;;;;;;;;;5043001;27;89119;-51
2022/08/06 02:47:19;;;;;;;5.70;3.30;;;;;;;;;;5042295;27;87802;-52
2022/08/06 02:49:47;;;;;;;4.87;3.37;;;;;;;;;;5043466;27;86870;-52
2022/08/06 02:52:27;;;;;;;6.27;3.90;;;;;;;;;;5043709;27;87075;-52
2022/08/06 02:55:02;;;;;;;4.93;3.63;;;;;;;;;;5043310;27;88351;-53
2022/08/06 02:57:34;;;;;;;8.27;4.47;;;;;;;;;;5042898;27;87680;-52
2022/08/06 03:00:19;;;;;;;7.77;4.33;;;;;;;;;;5043302;27;87108;-52
2022/08/06 03:02:57;;;;;;;5.13;3.93;;;;;;;;;;5042792;27;87096;-52
2022/08/06 03:05:27;;;;;;;8.63;4.33;;;;;;;;;;5042187;28;88915;-52
2022/08/06 03:08:16;;;;;;;8.13;5.40;;;;;;;;;;5042666;27;88601;-52
2022/08/06 03:10:44;;;;;;;8.03;5.33;;;;;;;;;;5043381;27;86944;-52
2022/08/06 03:13:13;;;;;;;8.87;4.70;;;;;;;;;;5042697;27;86944;-52
2022/08/06 03:15:43;;;;;;;10.37;5.87;;;;;;;;;;5042549;27;88851;-52
2022/08/06 03:18:28;;;;;;;12.27;6.00;;;;;;;;;;5042229;27;88769;-53
2022/08/06 03:20:56;;;;;;;8.40;5.70;;;;;;;;;;5043086;27;86886;-54
2022/08/06 03:23:25;;;;;;;8.07;6.03;;;;;;;;;;5042952;27;86228;-52
2022/08/06 03:25:54;;;;;;;9.33;5.93;;;;;;;;;;5042483;27;89556;-52
2022/08/06 03:28:23;;;;;;;14.27;7.83;;;;;;;;;;5041942;27;88079;-51
2022/08/06 03:30:52;;;;;;;9.83;6.53;;;;;;;;;;5041515;28;87991;-52
2022/08/06 03:33:23;;;;;;;11.23;6.97;;;;;;;;;;5041986;27;86988;-52
2022/08/06 03:36:11;;;;;;;12.73;7.13;;;;;;;;;;5049714;27;86967;-52
2022/08/06 03:38:50;;;;;;;14.90;8.47;;;;;;;;;;5062693;27;87772;-52
2022/08/06 03:41:23;;;;;;;13.67;7.60;;;;;;;;;;5062963;27;87386;-52
2022/08/06 03:43:56;;;;;;;14.87;8.03;;;;;;;;;;5063015;27;86945;-52
2022/08/06 03:46:34;;;;;;;17.33;8.67;;;;;;;;;;5062537;27;87106;-52
2022/08/06 03:49:03;;;;;;;16.07;8.37;;;;;;;;;;5062919;27;87861;-52
2022/08/06 03:51:34;;;;;;;13.77;7.73;;;;;;;;;;5062783;27;86842;-52
2022/08/06 03:54:23;;;;;;;15.87;9.00;;;;;;;;;;5062529;27;86977;-52
2022/08/06 03:56:56;;;;;;;14.47;8.33;;;;;;;;;;5061690;27;87960;-52
2022/08/06 03:59:24;;;;;;;15.13;8.57;;;;;;;;;;5062274;27;90185;-52
2022/08/06 04:02:06;;;;;;;13.87;9.77;;;;;;;;;;5062453;27;86943;-52
2022/08/06 04:04:51;;;;;;;16.43;9.90;;;;;;;;;;5062341;27;87127;-53
2022/08/06 04:07:21;;;;;;;15.37;9.23;;;;;;;;;;5061429;27;87051;-52
2022/08/06 04:09:51;;;;;;;13.63;9.70;;;;;;;;;;5061844;27;87784;-53
2022/08/06 04:12:28;;;;;;;16.93;9.87;;;;;;;;;;5062082;27;87009;-51
2022/08/06 04:15:17;;;;;;;16.73;10.70;;;;;;;;;;5062733;27;86222;-52
2022/08/06 04:17:47;;;;;;;17.10;9.50;;;;;;;;;;5061404;27;88194;-52
2022/08/06 04:20:16;;;;;;;17.80;9.93;;;;;;;;;;5061976;27;87977;-52
2022/08/06 04:23:05;;;;;;;13.07;9.17;;;;;;;;;;5061197;27;88022;-52
2022/08/06 04:25:42;;;;;;;13.43;9.50;;;;;;;;;;5061673;27;86968;-52
2022/08/06 04:28:11;;;;;;;16.80;10.63;;;;;;;;;;5061564;27;88050;-52
2022/08/06 04:30:41;;;;;;;16.73;10.17;;;;;;;;;;5060568;27;88889;-52
2022/08/06 04:33:17;;;;;;;19.30;10.33;;;;;;;;;;5060680;27;87034;-52
2022/08/06 04:35:46;;;;;;;18.73;11.63;;;;;;;;;;5060540;27;86940;-52
2022/08/06 04:38:35;;;;;;;16.90;11.00;;;;;;;;;;5060728;27;90617;-52
2022/08/06 04:41:06;;;;;;;14.53;11.23;;;;;;;;;;5061293;27;89082;-52
2022/08/06 04:43:43;;;;;;;15.97;10.43;;;;;;;;;;5060629;27;87084;-52
2022/08/06 04:46:20;;;;;;;16.03;10.33;;;;;;;;;;5061075;27;87114;-53
2022/08/06 04:48:50;;;;;;;18.30;10.53;;;;;;;;;;5060327;27;88985;-52
2022/08/06 04:51:27;;;;;;;14.97;10.03;;;;;;;;;;5060667;27;88538;-54
2022/08/06 04:54:16;;;;;;;17.77;10.63;;;;;;;;;;5060353;27;87181;-54
2022/08/06 04:56:44;;;;;;;22.83;11.10;;;;;;;;;;5060551;27;86908;-52
2022/08/06 04:59:17;;;;;;;12.40;8.77;;;;;;;;;;5060403;27;88178;-54
2022/08/06 05:01:46;;;;;;;17.97;9.50;;;;;;;;;;5061021;27;88792;-52
2022/08/06 05:04:29;;;;;;;14.37;10.27;;;;;;;;;;5061739;27;87038;-52
2022/08/06 05:07:01;;;;;;;15.83;9.60;;;;;;;;;;5060638;27;86125;-52
2022/08/06 05:09:31;;;;;;;18.10;10.60;;;;;;;;;;5060472;27;88139;-52
2022/08/06 05:12:14;;;;;;;14.63;9.47;;;;;;;;;;5060287;27;87021;-52
2022/08/06 05:14:44;;;;;;;11.93;7.87;;;;;;;;;;5060750;27;88110;-52
2022/08/06 05:17:15;;;;;;;12.97;9.57;;;;;;;;;;5061129;27;87074;-52
2022/08/06 05:19:46;;;;;;;13.03;9.03;;;;;;;;;;5061177;27;89123;-52
2022/08/06 05:22:17;;;;;;;15.20;8.93;;;;;;;;;;5060775;27;87796;-53
2022/08/06 05:25:05;;;;;;;11.00;7.73;;;;;;;;;;5060597;27;86976;-52
2022/08/06 05:27:43;;;;;;;16.90;10.33;;;;;;;;;;5060715;27;87041;-52
2022/08/06 05:30:31;;;;;;;13.83;9.00;;;;;;;;;;5060033;27;87713;-54
2022/08/06 05:33:00;;;;;;;16.17;9.23;;;;;;;;;;5060763;27;88952;-52
2022/08/06 05:35:30;;;;;;;14.87;9.67;;;;;;;;;;5061516;27;86902;-54
2022/08/06 05:38:12;;;;;;;11.37;8.20;;;;;;;;;;5061234;27;87082;-52
2022/08/06 05:40:58;;;;;;;9.93;7.13;;;;;;;;;;5060517;27;89900;-52
2022/08/06 05:43:27;;;;;;;13.13;8.23;;;;;;;;;;5061378;27;88671;-53
2022/08/06 05:46:17;;;;;;;11.97;7.87;;;;;;;;;;5061286;27;86921;-53
2022/08/06 05:48:56;;;;;;;12.87;7.77;;;;;;;;;;5064413;27;86973;-53
2022/08/06 05:51:29;;;;;;;13.30;7.90;;;;;;;;;;5064702;27;88217;-53
2022/08/06 05:54:12;;;;;;;9.17;6.90;;;;;;;;;;5064293;27;87585;-53
2022/08/06 05:56:44;;;;;;;13.63;8.37;;;;;;;;;;5064110;27;87018;-53
2022/08/06 05:59:13;;;;;;;10.70;7.67;;;;;;;;;;5064530;27;86347;-53
2022/08/06 06:02:01;;;;;;;10.87;6.97;;;;;;;;;;5063770;27;87470;-53
2022/08/06 06:04:30;;;;;;;9.80;6.33;;;;;;;;;;5064287;27;86880;-53
2022/08/06 06:07:02;;;;;;;10.80;6.63;;;;;;;;;;5063538;27;87955;-53
2022/08/06 06:09:35;;;;;;;9.83;6.23;;;;;;;;;;5063838;27;86851;-53
2022/08/06 06:12:24;;;;;;;9.13;6.77;;;;;;;;;;5063975;27;90679;-52
2022/08/06 06:15:00;;;;;;;7.27;5.23;;;;;;;;;;5064004;27;87597;-52
2022/08/06 06:17:58;;;;;;;10.63;6.03;;;;;;;;;;5064065;27;86839;-52
2022/08/06 06:20:31;;;;;;;6.70;5.27;;;;;;;;;;5064064;27;87000;-52
2022/08/06 06:23:21;;;;;;;7.33;5.47;;;;;;;;;;5064085;27;87800;-52
2022/08/06 06:25:51;;;;;;;7.40;5.07;;;;;;;;;;5064161;27;86826;-52
2022/08/06 06:28:23;;;;;;;7.37;5.63;;;;;;;;;;5063686;27;87049;-52
2022/08/06 06:31:01;;;;;;;6.17;4.57;;;;;;;;;;5063823;27;87176;-52
2022/08/06 06:33:33;;;;;;;7.23;4.87;;;;;;;;;;5062908;27;89013;-52
2022/08/06 06:36:30;;;;;;;10.07;4.93;;;;;;;;;;5063363;27;88797;-52
2022/08/06 06:39:04;;;;;;;5.93;4.20;;;;;;;;;;5051777;27;87002;-52
2022/08/06 06:41:35;;;;;;;8.77;4.97;;;;;;;;;;5043320;27;87013;-52
2022/08/06 06:44:06;;;;;;;5.93;4.40;;;;;;;;;;5043039;27;88262;-52
2022/08/06 06:46:46;;;;;;;6.23;4.20;;;;;;;;;;5042776;27;88928;-52
2022/08/06 06:49:18;;;;;;;7.73;4.40;;;;;;;;;;5043477;27;87137;-52
2022/08/06 06:52:08;;;;;;;5.57;4.07;;;;;;;;;;5043271;27;86217;-52
2022/08/06 06:54:39;;;;;;;6.13;3.53;;;;;;;;;;5042844;27;88584;-52
2022/08/06 06:57:07;;;;;;;6.20;3.50;;;;;;;;;;5042206;27;87952;-52
2022/08/06 06:59:37;;;;;;;5.97;3.50;;;;;;;;;;5042027;27;88540;-52
2022/08/06 07:02:26;;;;;;;5.10;3.40;;;;;;;;;;5042951;27;87005;-52
2022/08/06 07:04:56;;;;;;;7.03;3.93;;;;;;;;;;5042634;27;88151;-52
2022/08/06 07:07:26;;;;;;;8.37;3.80;;;;;;;;;;5042370;27;88838;-52
2022/08/06 07:09:56;;;;;;;7.53;3.50;;;;;;;;;;5043029;27;87021;-52
2022/08/06 07:12:30;;;;;;;6.97;3.73;;;;;;;;;;5042555;27;86917;-52
2022/08/06 07:15:01;;;;;;;6.80;4.23;;;;;;;;;;5042564;27;88103;-52
2022/08/06 07:17:30;;;;;;;9.87;5.20;;;;;;;;;;5042842;27;87943;-52
2022/08/06 07:20:16;;;;;;;9.77;5.03;;;;;;;;;;5042745;27;86876;-52
2022/08/06 07:22:44;;;;;;;8.30;5.77;;;;;;;;;;5042746;27;86966;-52
2022/08/06 07:25:34;;;;;;;13.67;5.90;;;;;;;;;;5041961;27;88872;-52
2022/08/06 07:28:07;;;;;;;11.97;6.63;;;;;;;;;;5042220;27;89759;-52
2022/08/06 07:30:39;;;;;;;11.30;6.93;;;;;;;;;;5042322;27;87022;-54
2022/08/06 07:33:08;;;;;;;15.30;7.43;;;;;;;;;;5041635;27;87080;-52
2022/08/06 07:35:37;;;;;;;16.67;7.93;;;;;;;;;;5042167;27;88212;-52
2022/08/06 07:38:06;;;;;;;18.30;8.13;;;;;;;;;;5041977;28;88940;-52
2022/08/06 07:40:39;;;;;;;13.60;8.00;;;;;;;;;;5042363;27;87726;-52
2022/08/06 07:43:20;;;;;;;17.33;8.63;;;;;;;;;;5042182;27;86211;-52
2022/08/06 07:45:52;;;;;;;16.33;7.53;;;;;;;;;;5042092;27;88047;-52
2022/08/06 07:48:25;;;;;;;19.97;8.97;;;;;;;;;;5042354;27;87709;-52
2022/08/06 07:50:54;;;;;;;16.77;9.43;;;;;;;;;;5041823;27;87898;-52
2022/08/06 07:53:22;;;;;;;16.57;9.40;;;;;;;;;;5042432;28;86865;-52
2022/08/06 07:56:12;;;;;;;23.20;9.03;;;;;;;;;;5041740;27;87862;-52
2022/08/06 07:58:42;;;;;;;15.77;9.23;;;;;;;;;;5041779;27;87998;-52
2022/08/06 08:01:13;;;;;;;22.43;9.77;;;;;;;;;;5041753;27;87052;-52
2022/08/06 08:06:52;;;;;;;18.93;8.47;;;;;;;;;;5041941;27;87827;-52
2022/08/06 08:09:22;;;;;;;18.20;8.77;;;;;;;;;;5042105;27;87998;-52
2022/08/06 08:12:13;;;;;;;17.40;8.27;;;;;;;;;;5041578;28;86957;-52
2022/08/06 08:15:01;;;;;;;18.40;9.23;;;;;;;;;;5041758;27;87030;-52
2022/08/06 08:17:30;;;;;;;20.53;9.57;;;;;;;;;;5041094;27;88860;-52
2022/08/06 08:20:03;;;;;;;19.37;10.03;;;;;;;;;;5041597;27;88712;-52
2022/08/06 08:22:42;;;;;;;21.63;10.13;;;;;;;;;;5041527;27;87048;-52
2022/08/06 08:25:17;;;;;;;21.57;10.43;;;;;;;;;;5041422;27;86999;-52
2022/08/06 08:28:07;;;;;;;26.40;11.80;;;;;;;;;;5040788;27;87846;-52
2022/08/06 08:30:39;;;;;;;21.77;11.20;;;;;;;;;;5040601;27;87716;-52
2022/08/06 08:33:08;;;;;;;28.23;12.93;;;;;;;;;;5040679;27;87026;-52
2022/08/06 08:35:45;;;;;;;28.03;11.77;;;;;;;;;;5041067;27;86268;-52
2022/08/06 08:38:27;;;;;;;24.50;11.60;;;;;;;;;;5040695;27;88152;-52
2022/08/06 08:40:57;;;;;;;23.37;10.93;;;;;;;;;;5041020;27;88556;-52
2022/08/06 08:43:27;;;;;;;24.97;11.97;;;;;;;;;;5040549;27;87877;-52
2022/08/06 08:46:15;;;;;;;26.07;12.23;;;;;;;;;;5040721;27;86926;-52
2022/08/06 08:48:43;;;;;;;24.40;9.93;;;;;;;;;;5040420;27;88188;-52
2022/08/06 08:51:12;;;;;;;24.43;11.47;;;;;;;;;;5040845;27;89232;-52
2022/08/06 08:53:44;;;;;;;22.80;10.23;;;;;;;;;;5040665;27;86889;-52
2022/08/06 08:56:14;;;;;;;26.27;11.07;;;;;;;;;;5040604;27;87015;-52
2022/08/06 08:59:03;;;;;;;23.20;10.50;;;;;;;;;;5040168;27;87845;-52
2022/08/06 09:01:52;;;;;;;21.33;10.10;;;;;;;;;;5039799;27;87492;-52
2022/08/06 09:04:24;;;;;;;19.67;10.03;;;;;;;;;;5040252;27;86921;-54
2022/08/06 09:06:56;;;;;;;20.43;9.43;;;;;;;;;;5040718;27;86830;-52
2022/08/06 09:09:24;;;;;;;19.30;9.73;;;;;;;;;;5040885;27;89221;-52
2022/08/06 09:11:59;;;;;;;21.87;10.27;;;;;;;;;;5040825;27;87549;-52
2022/08/06 09:14:47;;;;;;;17.30;9.47;;;;;;;;;;5040686;27;87049;-52
2022/08/06 09:17:16;;;;;;;18.93;9.37;;;;;;;;;;5040908;27;86964;-52
2022/08/06 09:20:04;;;;;;;15.87;8.90;;;;;;;;;;5040569;27;87700;-52
2022/08/06 09:22:34;;;;;;;19.37;8.70;;;;;;;;;;5043215;27;88826;-53
2022/08/06 09:25:04;;;;;;;16.23;8.80;;;;;;;;;;5044779;27;87547;-52
2022/08/06 09:27:35;;;;;;;19.73;8.47;;;;;;;;;;5044432;27;86281;-52
2022/08/06 09:30:18;;;;;;;14.47;7.63;;;;;;;;;;5043822;27;87881;-52
2022/08/06 09:32:57;;;;;;;13.07;7.43;;;;;;;;;;5043271;27;88814;-52
2022/08/06 09:35:45;;;;;;;13.60;8.23;;;;;;;;;;5044023;27;87845;-52
2022/08/06 09:38:14;;;;;;;13.10;7.63;;;;;;;;;;5044180;27;87110;-52
2022/08/06 09:40:59;;;;;;;14.27;7.53;;;;;;;;;;5043872;27;89079;-52
2022/08/06 09:43:27;;;;;;;15.90;7.57;;;;;;;;;;5044335;27;89034;-52
2022/08/06 09:46:17;;;;;;;14.07;7.07;;;;;;;;;;5044096;27;86932;-52
2022/08/06 09:48:58;;;;;;;12.60;7.37;;;;;;;;;;5044299;27;87078;-53
2022/08/06 09:51:47;;;;;;;14.43;6.43;;;;;;;;;;5044388;27;87690;-57
2022/08/06 09:54:20;;;;;;;14.50;6.37;;;;;;;;;;5044093;27;86648;-54
2022/08/06 09:56:58;;;;;;;11.83;6.50;;;;;;;;;;5044305;27;86907;-52
2022/08/06 09:59:26;;;;;;;11.70;6.10;;;;;;;;;;5044134;27;86981;-54
2022/08/06 10:02:02;;;;;;;8.90;5.50;;;;;;;;;;5043115;27;90006;-52
2022/08/06 10:04:34;;;;;;;10.63;5.63;;;;;;;;;;5061433;27;89726;-53
2022/08/06 10:07:04;;;;;;;6.43;4.97;;;;;;;;;;5064637;27;87116;-54
2022/08/06 10:09:37;;;;;;;7.83;4.93;;;;;;;;;;5064168;27;87045;-53
2022/08/06 10:12:17;;;;;;;10.03;4.93;;;;;;;;;;5064097;27;88929;-53
2022/08/06 10:14:46;;;;;;;9.60;4.57;;;;;;;;;;5064326;27;88977;-53
2022/08/06 10:17:17;;;;;;;8.93;5.23;;;;;;;;;;5064254;27;87152;-53
2022/08/06 10:19:47;;;;;;;7.70;4.63;;;;;;;;;;5064624;27;86242;-53
2022/08/06 10:22:19;;;;;;;10.47;4.90;;;;;;;;;;5063822;27;87932;-53
2022/08/06 10:24:50;;;;;;;13.67;5.00;;;;;;;;;;5063894;27;87768;-52
2022/08/06 10:27:20;;;;;;;8.57;4.57;;;;;;;;;;5063641;27;87959;-52
2022/08/06 10:29:51;;;;;;;6.23;3.47;;;;;;;;;;5064124;27;87006;-53
2022/08/06 10:32:24;;;;;;;8.60;4.50;;;;;;;;;;5063686;27;88155;-52
2022/08/06 10:35:02;;;;;;;9.93;4.53;;;;;;;;;;5063283;27;88028;-53
2022/08/06 10:37:41;;;;;;;6.83;4.13;;;;;;;;;;5063730;27;87002;-52
2022/08/06 10:40:17;;;;;;;7.37;3.80;;;;;;;;;;5063762;27;87022;-52
2022/08/06 10:42:58;;;;;;;10.30;5.20;;;;;;;;;;5063196;27;89184;-52
2022/08/06 10:45:27;;;;;;;8.47;4.70;;;;;;;;;;5063183;27;86488;-52
2022/08/06 10:48:17;;;;;;;7.93;4.67;;;;;;;;;;5022491;28;86895;-53
2022/08/06 10:51:06;;;;;;;8.60;4.30;;;;;;;;;;5022826;28;87098;-53
2022/08/06 10:53:35;;;;;;;8.80;4.57;;;;;;;;;;5033464;27;90937;-53
2022/08/06 10:56:25;;;;;;;8.80;4.47;;;;;;;;;;5042854;27;88486;-52
2022/08/06 10:59:01;;;;;;;11.17;4.60;;;;;;;;;;5043114;27;87045;-53
2022/08/06 11:01:31;;;;;;;9.73;4.13;;;;;;;;;;5042316;27;86917;-52
2022/08/06 11:04:25;;;;;;;8.13;4.67;;;;;;;;;;5042286;27;89130;-53
2022/08/06 11:07:00;;;;;;;7.63;4.40;;;;;;;;;;5042559;27;89044;-53
2022/08/06 11:09:37;;;;;;;9.33;4.90;;;;;;;;;;5043055;27;87041;-52
2022/08/06 11:12:29;;;;;;;9.23;4.70;;;;;;;;;;5042803;27;86530;-52
2022/08/06 11:14:59;;;;;;;10.63;5.40;;;;;;;;;;5042199;27;89051;-52
2022/08/06 11:17:42;;;;;;;7.80;4.93;;;;;;;;;;5042591;27;88993;-53
2022/08/06 11:20:15;;;;;;;9.90;5.23;;;;;;;;;;5042157;28;88075;-53
2022/08/06 11:22:44;;;;;;;8.23;5.57;;;;;;;;;;5042223;28;87002;-53
2022/08/06 11:25:38;;;;;;;9.13;4.90;;;;;;;;;;5042073;27;86996;-53
2022/08/06 11:28:07;;;;;;;7.33;4.73;;;;;;;;;;5042084;27;88738;-53
2022/08/06 11:30:38;;;;;;;14.70;5.87;;;;;;;;;;5041969;27;87067;-53
2022/08/06 11:33:09;;;;;;;14.13;7.77;;;;;;;;;;5042181;28;87010;-52
2022/08/06 11:35:43;;;;;;;16.87;8.73;;;;;;;;;;5042370;27;89178;-53
2022/08/06 11:38:35;;;;;;;18.90;8.43;;;;;;;;;;5042766;27;87815;-53
2022/08/06 11:41:03;;;;;;;21.40;8.97;;;;;;;;;;5042333;28;87018;-52
2022/08/06 11:43:49;;;;;;;24.10;10.37;;;;;;;;;;5042222;27;87346;-52
2022/08/06 11:46:32;;;;;;;24.73;11.00;;;;;;;;;;5040914;27;89189;-54
2022/08/06 11:49:12;;;;;;;22.50;10.00;;;;;;;;;;5041373;27;88803;-53
2022/08/06 11:51:47;;;;;;;22.20;9.67;;;;;;;;;;5041685;27;86906;-53
2022/08/06 11:54:34;;;;;;;23.67;10.17;;;;;;;;;;5042015;28;86923;-52
2022/08/06 11:57:21;;;;;;;24.93;11.07;;;;;;;;;;5041668;27;87104;-52
2022/08/06 12:00:14;;;;;;;22.73;9.20;;;;;;;;;;5041257;27;88027;-53
2022/08/06 12:02:49;;;;;;;22.80;9.97;;;;;;;;;;5041999;27;87027;-53
2022/08/06 12:05:47;;;;;;;22.77;9.37;;;;;;;;;;5042021;27;86214;-54
2022/08/06 12:08:28;;;;;;;23.17;9.20;;;;;;;;;;5041366;27;88946;-52
2022/08/06 12:11:34;;;;;;;22.07;9.37;;;;;;;;;;5041724;27;87891;-52
2022/08/06 12:14:05;;;;;;;16.63;9.47;;;;;;;;;;5041933;27;87983;-53
2022/08/06 12:16:53;;;;;;;21.13;9.90;;;;;;;;;;5041918;27;87015;-53
2022/08/06 12:19:29;;;;;;;23.63;9.57;;;;;;;;;;5041374;27;88199;-52
2022/08/06 12:21:59;;;;;;;19.60;9.77;;;;;;;;;;5041327;27;87977;-53
2022/08/06 12:24:30;;;;;;;21.13;8.93;;;;;;;;;;5041736;27;86958;-52
2022/08/06 12:27:18;;;;;;;17.90;8.87;;;;;;;;;;5048023;27;86867;-53
2022/08/06 12:30:01;;;;;;;17.03;8.57;;;;;;;;;;5046624;27;88088;-53
2022/08/06 12:32:30;;;;;;;17.57;8.80;;;;;;;;;;5048880;27;88970;-52
2022/08/06 12:35:00;;;;;;;16.17;9.10;;;;;;;;;;5050273;27;87540;-52
2022/08/06 12:37:35;;;;;;;15.07;8.17;;;;;;;;;;5050805;27;87220;-54
2022/08/06 12:40:29;;;;;;;16.77;8.53;;;;;;;;;;5045710;27;90097;-52
2022/08/06 12:43:10;;;;;;;13.70;7.80;;;;;;;;;;5049982;27;87455;-53
2022/08/06 12:45:42;;;;;;;15.83;7.70;;;;;;;;;;5047161;27;87226;-54
2022/08/06 12:48:31;;;;;;;16.50;8.90;;;;;;;;;;5047279;27;87264;-52
2022/08/06 12:51:03;;;;;;;13.33;8.07;;;;;;;;;;5049650;27;87328;-53
2022/08/06 12:53:42;;;;;;;17.33;7.83;;;;;;;;;;5049357;27;87798;-52
2022/08/06 12:56:16;;;;;;;14.03;7.73;;;;;;;;;;5046730;27;87070;-52
2022/08/06 12:59:01;;;;;;;17.47;8.50;;;;;;;;;;5048802;27;86557;-53
2022/08/06 13:01:30;;;;;;;14.37;8.77;;;;;;;;;;5047975;27;88069;-52
2022/08/06 13:04:18;;;;;;;14.03;8.10;;;;;;;;;;5054499;27;89698;-53
2022/08/06 13:06:46;;;;;;;19.07;9.77;;;;;;;;;;5061098;27;87872;-53
2022/08/06 13:09:16;;;;;;;16.57;8.70;;;;;;;;;;5061687;27;86957;-52
2022/08/06 13:11:46;;;;;;;19.20;8.97;;;;;;;;;;5060446;27;89216;-52
2022/08/06 13:14:19;;;;;;;18.77;8.83;;;;;;;;;;5060190;27;87588;-52
2022/08/06 13:16:48;;;;;;;15.93;8.07;;;;;;;;;;5060218;27;88126;-53
2022/08/06 13:19:24;;;;;;;20.20;8.93;;;;;;;;;;5061005;27;87054;-52
2022/08/06 13:21:58;;;;;;;17.03;9.07;;;;;;;;;;5061302;27;88175;-52
2022/08/06 13:24:27;;;;;;;14.97;8.00;;;;;;;;;;5061263;27;86837;-53
2022/08/06 13:27:03;;;;;;;16.13;7.90;;;;;;;;;;5061378;27;86991;-52
2022/08/06 13:29:35;;;;;;;15.73;8.60;;;;;;;;;;5061162;27;86877;-52
2022/08/06 13:32:25;;;;;;;14.23;8.30;;;;;;;;;;5059151;27;88613;-53
2022/08/06 13:35:01;;;;;;;14.47;7.80;;;;;;;;;;5060434;27;89920;-52
2022/08/06 13:37:47;;;;;;;16.93;6.80;;;;;;;;;;5061183;27;86887;-52
2022/08/06 13:40:37;;;;;;;13.80;6.80;;;;;;;;;;5060891;27;86898;-52
2022/08/06 13:43:07;;;;;;;13.47;7.27;;;;;;;;;;5060847;27;89158;-52
2022/08/06 13:45:36;;;;;;;10.73;6.27;;;;;;;;;;5060550;27;89142;-53
2022/08/06 13:48:24;;;;;;;12.10;6.27;;;;;;;;;;5061363;27;86880;-53
2022/08/06 13:50:53;;;;;;;10.83;6.30;;;;;;;;;;5061233;27;86190;-52
2022/08/06 13:53:21;;;;;;;16.93;6.60;;;;;;;;;;5060646;27;87120;-52
2022/08/06 13:56:08;;;;;;;11.80;5.67;;;;;;;;;;5060365;27;88081;-52
2022/08/06 13:58:39;;;;;;;11.33;6.10;;;;;;;;;;5060751;27;88209;-53
2022/08/06 14:01:12;;;;;;;11.27;5.53;;;;;;;;;;5060537;27;87003;-54
2022/08/06 14:03:41;;;;;;;7.90;5.10;;;;;;;;;;5060191;27;88216;-52
2022/08/06 14:06:14;;;;;;;12.70;5.37;;;;;;;;;;5060365;27;87877;-52
2022/08/06 14:08:45;;;;;;;9.00;5.20;;;;;;;;;;5061783;27;87018;-52
2022/08/06 14:11:15;;;;;;;7.90;5.00;;;;;;;;;;5064153;27;87137;-52
2022/08/06 14:13:49;;;;;;;8.37;4.67;;;;;;;;;;5063728;27;89289;-52
2022/08/06 14:16:18;;;;;;;7.70;4.97;;;;;;;;;;5060751;27;88832;-53
2022/08/06 14:18:48;;;;;;;8.27;4.90;;;;;;;;;;5049354;27;87051;-53
2022/08/06 14:21:28;;;;;;;7.87;4.70;;;;;;;;;;5049735;27;87059;-53
2022/08/06 14:23:56;;;;;;;9.00;4.73;;;;;;;;;;5051284;27;88098;-52
2022/08/06 14:26:34;;;;;;;7.67;4.80;;;;;;;;;;5043533;27;88651;-53
2022/08/06 14:29:04;;;;;;;6.27;4.40;;;;;;;;;;5042679;27;86998;-52
2022/08/06 14:31:53;;;;;;;5.13;3.80;;;;;;;;;;5041762;27;86933;-53
2022/08/06 14:34:25;;;;;;;7.40;4.23;;;;;;;;;;5042659;27;89258;-54
2022/08/06 14:37:04;;;;;;;8.93;4.93;;;;;;;;;;5043375;27;87770;-52
2022/08/06 14:39:41;;;;;;;11.23;4.43;;;;;;;;;;5043317;28;87115;-53
2022/08/06 14:45:16;;;;;;;5.43;3.53;;;;;;;;;;5042914;27;87677;-53
2022/08/06 14:47:48;;;;;;;5.43;3.37;;;;;;;;;;5042541;27;87099;-54
2022/08/06 14:50:27;;;;;;;4.83;3.40;;;;;;;;;;5042448;27;87960;-53
2022/08/06 14:53:05;;;;;;;9.53;4.20;;;;;;;;;;5043205;27;86894;-53
2022/08/06 14:55:33;;;;;;;7.43;3.57;;;;;;;;;;5042951;27;89222;-52
2022/08/06 14:58:02;;;;;;;4.90;3.10;;;;;;;;;;5042953;27;87841;-53
2022/08/06 15:00:39;;;;;;;4.67;3.13;;;;;;;;;;5042761;28;87115;-53
2022/08/06 15:03:11;;;;;;;4.40;3.13;;;;;;;;;;5042613;27;86954;-53
2022/08/06 15:05:42;;;;;;;5.90;2.77;;;;;;;;;;5042532;27;88067;-53
2022/08/06 15:08:30;;;;;;;4.77;2.60;;;;;;;;;;5042420;27;87545;-54
2022/08/06 15:11:00;;;;;;;6.00;2.70;;;;;;;;;;5042538;27;86995;-53
2022/08/06 15:13:29;;;;;;;4.03;2.73;;;;;;;;;;5042869;27;86972;-53
2022/08/06 15:16:05;;;;;;;3.37;2.70;;;;;;;;;;5041753;27;89188;-53
2022/08/06 15:18:38;;;;;;;3.67;2.30;;;;;;;;;;5042114;27;89666;-51
2022/08/06 15:21:26;;;;;;;5.13;3.07;;;;;;;;;;5042350;27;87640;-52
2022/08/06 15:24:15;;;;;;;2.90;2.47;;;;;;;;;;5042168;27;86980;-53
2022/08/06 15:26:43;;;;;;;3.20;2.03;;;;;;;;;;5042087;28;89183;-52
2022/08/06 15:29:16;;;;;;;3.53;2.10;;;;;;;;;;5042090;27;88877;-52
2022/08/06 15:31:46;;;;;;;3.73;2.03;;;;;;;;;;5041661;27;87104;-52